sensor_id;sensor_type;location;lat;lon;timestamp;temperature;humidity
37222;DHT22;23119;51.842;-2.230;2022-10-17T00:01:47;15.70;99.90
37222;DHT22;23119;51.842;-2.230;2022-10-17T00:04:15;15.70;99.90
37222;DHT22;23119;51.842;-2.230;2022-10-17T00:06:52;15.60;99.90
37222;DHT22;23119;51.842;-2.230;2022-10-17T00:09:18;15.60;99.90
37222;DHT22;23119;51.842;-2.230;2022-10-17T00:11:43;15.60;99.90
37222;DHT22;23119;51.842;-2.230;2022-10-17T00:14:12;15.60;99.90
37222;DHT22;23119;51.842;-2.230;2022-10-17T00:16:37;15.60;99.90
37222;DHT22;23119;51.842;-2.230;2022-10-17T00:19:06;15.60;99.90
37222;DHT22;23119;51.842;-2.230;2022-10-17T00:21:42;15.60;99.90
37222;DHT22;23119;51.842;-2.230;2022-10-17T00:24:10;15.60;99.90
37222;DHT22;23119;51.842;-2.230;2022-10-17T00:26:39;15.70;99.90
37222;DHT22;23119;51.842;-2.230;2022-10-17T00:29:05;15.70;99.90
37222;DHT22;23119;51.842;-2.230;2022-10-17T00:31:30;15.70;99.90
37222;DHT22;23119;51.842;-2.230;2022-10-17T00:34:00;15.60;99.90
37222;DHT22;23119;51.842;-2.230;2022-10-17T00:36:31;15.70;99.90
37222;DHT22;23119;51.842;-2.230;2022-10-17T00:39:02;15.70;99.90
37222;DHT22;23119;51.842;-2.230;2022-10-17T00:41:33;15.70;99.90
37222;DHT22;23119;51.842;-2.230;2022-10-17T00:44:05;15.70;99.90
37222;DHT22;23119;51.842;-2.230;2022-10-17T00:46:36;15.70;99.90
37222;DHT22;23119;51.842;-2.230;2022-10-17T00:49:22;15.70;99.90
37222;DHT22;23119;51.842;-2.230;2022-10-17T00:51:53;15.70;99.90
37222;DHT22;23119;51.842;-2.230;2022-10-17T00:54:23;15.70;99.90
37222;DHT22;23119;51.842;-2.230;2022-10-17T00:56:56;15.70;99.90
37222;DHT22;23119;51.842;-2.230;2022-10-17T00:59:33;15.70;99.90
37222;DHT22;23119;51.842;-2.230;2022-10-17T01:02:14;15.70;99.90
37222;DHT22;23119;51.842;-2.230;2022-10-17T01:04:43;15.70;99.90
37222;DHT22;23119;51.842;-2.230;2022-10-17T01:07:11;15.70;99.90
37222;DHT22;23119;51.842;-2.230;2022-10-17T01:10:01;15.70;99.90
37222;DHT22;23119;51.842;-2.230;2022-10-17T01:12:56;15.60;99.90
37222;DHT22;23119;51.842;-2.230;2022-10-17T01:35:38;15.80;99.90
37222;DHT22;23119;51.842;-2.230;2022-10-17T01:37:54;15.70;99.90
37222;DHT22;23119;51.842;-2.230;2022-10-17T01:40:35;15.70;99.90
37222;DHT22;23119;51.842;-2.230;2022-10-17T01:46:15;15.70;99.90
37222;DHT22;23119;51.842;-2.230;2022-10-17T01:48:44;15.70;99.90
37222;DHT22;23119;51.842;-2.230;2022-10-17T01:51:27;15.70;99.90
37222;DHT22;23119;51.842;-2.230;2022-10-17T01:56:37;15.80;99.90
37222;DHT22;23119;51.842;-2.230;2022-10-17T01:59:16;15.80;99.90
37222;DHT22;23119;51.842;-2.230;2022-10-17T02:01:48;15.80;99.90
37222;DHT22;23119;51.842;-2.230;2022-10-17T02:04:15;15.90;99.90
37222;DHT22;23119;51.842;-2.230;2022-10-17T02:06:50;15.90;99.90
37222;DHT22;23119;51.842;-2.230;2022-10-17T02:09:20;15.90;99.90
37222;DHT22;23119;51.842;-2.230;2022-10-17T02:11:58;15.90;99.90
37222;DHT22;23119;51.842;-2.230;2022-10-17T02:18:05;15.90;99.90
37222;DHT22;23119;51.842;-2.230;2022-10-17T02:20:53;15.90;99.90
37222;DHT22;23119;51.842;-2.230;2022-10-17T02:26:48;15.90;99.90
37222;DHT22;23119;51.842;-2.230;2022-10-17T02:29:16;15.90;99.90
37222;DHT22;23119;51.842;-2.230;2022-10-17T02:32:04;15.90;99.90
37222;DHT22;23119;51.842;-2.230;2022-10-17T02:37:04;15.80;99.90
37222;DHT22;23119;51.842;-2.230;2022-10-17T02:39:32;15.70;99.90
37222;DHT22;23119;51.842;-2.230;2022-10-17T02:42:02;15.70;99.90
37222;DHT22;23119;51.842;-2.230;2022-10-17T02:44:33;15.60;99.90
37222;DHT22;23119;51.842;-2.230;2022-10-17T02:47:10;15.60;99.90
37222;DHT22;23119;51.842;-2.230;2022-10-17T02:49:42;15.60;99.90
37222;DHT22;23119;51.842;-2.230;2022-10-17T02:52:21;15.50;99.90
37222;DHT22;23119;51.842;-2.230;2022-10-17T02:54:59;15.40;99.90
37222;DHT22;23119;51.842;-2.230;2022-10-17T02:57:51;15.40;99.90
37222;DHT22;23119;51.842;-2.230;2022-10-17T03:00:23;15.30;99.90
37222;DHT22;23119;51.842;-2.230;2022-10-17T03:02:51;15.30;99.90
37222;DHT22;23119;51.842;-2.230;2022-10-17T03:05:28;15.30;99.90
37222;DHT22;23119;51.842;-2.230;2022-10-17T03:08:01;15.30;99.90
37222;DHT22;23119;51.842;-2.230;2022-10-17T03:10:32;15.30;99.90
37222;DHT22;23119;51.842;-2.230;2022-10-17T03:13:00;15.30;99.90
37222;DHT22;23119;51.842;-2.230;2022-10-17T03:15:30;15.20;99.90
37222;DHT22;23119;51.842;-2.230;2022-10-17T03:17:56;15.20;99.90
37222;DHT22;23119;51.842;-2.230;2022-10-17T03:20:22;15.20;99.90
37222;DHT22;23119;51.842;-2.230;2022-10-17T03:22:53;15.20;99.90
37222;DHT22;23119;51.842;-2.230;2022-10-17T03:25:21;15.10;99.90
37222;DHT22;23119;51.842;-2.230;2022-10-17T03:27:47;15.10;99.90
37222;DHT22;23119;51.842;-2.230;2022-10-17T03:30:18;15.10;99.90
37222;DHT22;23119;51.842;-2.230;2022-10-17T03:32:49;15.10;99.90
37222;DHT22;23119;51.842;-2.230;2022-10-17T03:35:15;15.10;99.90
37222;DHT22;23119;51.842;-2.230;2022-10-17T03:37:44;15.10;99.90
37222;DHT22;23119;51.842;-2.230;2022-10-17T03:40:12;15.00;99.90
37222;DHT22;23119;51.842;-2.230;2022-10-17T03:42:45;15.00;99.90
37222;DHT22;23119;51.842;-2.230;2022-10-17T03:45:13;15.00;99.90
37222;DHT22;23119;51.842;-2.230;2022-10-17T03:47:41;15.00;99.90
37222;DHT22;23119;51.842;-2.230;2022-10-17T03:50:10;15.00;99.90
37222;DHT22;23119;51.842;-2.230;2022-10-17T03:52:40;15.00;99.90
37222;DHT22;23119;51.842;-2.230;2022-10-17T03:55:11;15.00;99.90
37222;DHT22;23119;51.842;-2.230;2022-10-17T03:57:44;15.00;99.90
37222;DHT22;23119;51.842;-2.230;2022-10-17T04:00:13;15.00;99.90
37222;DHT22;23119;51.842;-2.230;2022-10-17T04:02:38;15.00;99.90
37222;DHT22;23119;51.842;-2.230;2022-10-17T04:05:09;15.10;99.90
37222;DHT22;23119;51.842;-2.230;2022-10-17T04:07:37;15.10;99.90
37222;DHT22;23119;51.842;-2.230;2022-10-17T04:10:05;15.10;99.90
37222;DHT22;23119;51.842;-2.230;2022-10-17T04:12:39;15.10;99.90
37222;DHT22;23119;51.842;-2.230;2022-10-17T04:15:08;15.10;99.90
37222;DHT22;23119;51.842;-2.230;2022-10-17T04:17:33;15.00;99.90
37222;DHT22;23119;51.842;-2.230;2022-10-17T04:20:02;15.00;99.90
37222;DHT22;23119;51.842;-2.230;2022-10-17T04:22:28;15.10;99.90
37222;DHT22;23119;51.842;-2.230;2022-10-17T04:24:56;15.10;99.90
37222;DHT22;23119;51.842;-2.230;2022-10-17T04:27:22;15.00;99.90
37222;DHT22;23119;51.842;-2.230;2022-10-17T04:29:50;15.10;99.90
37222;DHT22;23119;51.842;-2.230;2022-10-17T04:32:21;15.00;99.90
37222;DHT22;23119;51.842;-2.230;2022-10-17T04:34:51;15.00;99.90
37222;DHT22;23119;51.842;-2.230;2022-10-17T04:37:18;15.00;99.90
37222;DHT22;23119;51.842;-2.230;2022-10-17T04:39:49;15.00;99.90
37222;DHT22;23119;51.842;-2.230;2022-10-17T04:42:15;15.00;99.90
37222;DHT22;23119;51.842;-2.230;2022-10-17T04:44:48;14.90;99.90
37222;DHT22;23119;51.842;-2.230;2022-10-17T04:47:16;14.90;99.90
37222;DHT22;23119;51.842;-2.230;2022-10-17T04:49:41;14.90;99.90
37222;DHT22;23119;51.842;-2.230;2022-10-17T04:52:12;14.90;99.90
37222;DHT22;23119;51.842;-2.230;2022-10-17T04:54:38;14.90;99.90
37222;DHT22;23119;51.842;-2.230;2022-10-17T04:57:06;14.80;99.90
37222;DHT22;23119;51.842;-2.230;2022-10-17T04:59:32;14.80;99.90
37222;DHT22;23119;51.842;-2.230;2022-10-17T05:01:58;14.80;99.90
37222;DHT22;23119;51.842;-2.230;2022-10-17T05:04:23;14.70;99.90
37222;DHT22;23119;51.842;-2.230;2022-10-17T05:06:54;14.70;99.90
37222;DHT22;23119;51.842;-2.230;2022-10-17T05:09:20;14.60;99.90
37222;DHT22;23119;51.842;-2.230;2022-10-17T05:11:45;14.60;99.90
37222;DHT22;23119;51.842;-2.230;2022-10-17T05:14:14;14.60;99.90
37222;DHT22;23119;51.842;-2.230;2022-10-17T05:16:42;14.60;99.90
37222;DHT22;23119;51.842;-2.230;2022-10-17T05:19:10;14.60;99.90
37222;DHT22;23119;51.842;-2.230;2022-10-17T05:21:36;14.60;99.90
37222;DHT22;23119;51.842;-2.230;2022-10-17T05:24:08;14.50;99.90
37222;DHT22;23119;51.842;-2.230;2022-10-17T05:26:33;14.50;99.90
37222;DHT22;23119;51.842;-2.230;2022-10-17T05:29:02;14.50;99.90
37222;DHT22;23119;51.842;-2.230;2022-10-17T05:31:29;14.50;99.90
37222;DHT22;23119;51.842;-2.230;2022-10-17T05:33:58;14.40;99.90
37222;DHT22;23119;51.842;-2.230;2022-10-17T05:36:26;14.50;99.90
37222;DHT22;23119;51.842;-2.230;2022-10-17T05:38:54;14.40;99.90
37222;DHT22;23119;51.842;-2.230;2022-10-17T05:41:22;14.40;99.90
37222;DHT22;23119;51.842;-2.230;2022-10-17T05:43:50;14.40;99.90
37222;DHT22;23119;51.842;-2.230;2022-10-17T05:46:16;14.40;99.90
37222;DHT22;23119;51.842;-2.230;2022-10-17T05:48:44;14.40;99.90
37222;DHT22;23119;51.842;-2.230;2022-10-17T05:51:13;14.30;99.90
37222;DHT22;23119;51.842;-2.230;2022-10-17T05:53:40;14.30;99.90
37222;DHT22;23119;51.842;-2.230;2022-10-17T05:56:10;14.30;99.90
37222;DHT22;23119;51.842;-2.230;2022-10-17T05:58:41;14.30;99.90
37222;DHT22;23119;51.842;-2.230;2022-10-17T06:01:08;14.30;99.90
37222;DHT22;23119;51.842;-2.230;2022-10-17T06:03:35;14.30;99.90
37222;DHT22;23119;51.842;-2.230;2022-10-17T06:06:10;14.30;99.90
37222;DHT22;23119;51.842;-2.230;2022-10-17T06:08:39;14.30;99.90
37222;DHT22;23119;51.842;-2.230;2022-10-17T06:11:05;14.30;99.90
37222;DHT22;23119;51.842;-2.230;2022-10-17T06:13:35;14.30;99.90
37222;DHT22;23119;51.842;-2.230;2022-10-17T06:16:04;14.20;99.90
37222;DHT22;23119;51.842;-2.230;2022-10-17T06:18:33;14.20;99.90
37222;DHT22;23119;51.842;-2.230;2022-10-17T06:21:10;14.20;99.90
37222;DHT22;23119;51.842;-2.230;2022-10-17T06:23:39;14.20;99.90
37222;DHT22;23119;51.842;-2.230;2022-10-17T06:26:10;14.20;99.90
37222;DHT22;23119;51.842;-2.230;2022-10-17T06:28:38;14.20;99.90
37222;DHT22;23119;51.842;-2.230;2022-10-17T06:31:10;14.20;99.90
37222;DHT22;23119;51.842;-2.230;2022-10-17T06:33:38;14.20;99.90
37222;DHT22;23119;51.842;-2.230;2022-10-17T06:36:12;14.20;99.90
37222;DHT22;23119;51.842;-2.230;2022-10-17T06:38:41;14.20;99.90
37222;DHT22;23119;51.842;-2.230;2022-10-17T06:41:12;14.20;99.90
37222;DHT22;23119;51.842;-2.230;2022-10-17T06:43:42;14.20;99.90
37222;DHT22;23119;51.842;-2.230;2022-10-17T06:46:14;14.20;99.90
37222;DHT22;23119;51.842;-2.230;2022-10-17T06:48:40;14.20;99.90
37222;DHT22;23119;51.842;-2.230;2022-10-17T06:51:07;14.20;99.90
37222;DHT22;23119;51.842;-2.230;2022-10-17T06:53:37;14.20;99.90
37222;DHT22;23119;51.842;-2.230;2022-10-17T06:56:04;14.20;99.90
37222;DHT22;23119;51.842;-2.230;2022-10-17T06:58:37;14.20;99.90
37222;DHT22;23119;51.842;-2.230;2022-10-17T07:01:12;14.30;99.90
37222;DHT22;23119;51.842;-2.230;2022-10-17T07:03:39;14.30;99.90
37222;DHT22;23119;51.842;-2.230;2022-10-17T07:06:10;14.30;99.90
37222;DHT22;23119;51.842;-2.230;2022-10-17T07:08:36;14.40;99.90
37222;DHT22;23119;51.842;-2.230;2022-10-17T07:11:10;14.40;99.90
37222;DHT22;23119;51.842;-2.230;2022-10-17T07:13:41;14.50;99.90
37222;DHT22;23119;51.842;-2.230;2022-10-17T07:16:07;14.60;99.90
37222;DHT22;23119;51.842;-2.230;2022-10-17T07:18:36;14.60;99.90
37222;DHT22;23119;51.842;-2.230;2022-10-17T07:21:02;14.70;99.90
37222;DHT22;23119;51.842;-2.230;2022-10-17T07:23:31;14.70;99.90
37222;DHT22;23119;51.842;-2.230;2022-10-17T07:26:05;14.70;99.90
37222;DHT22;23119;51.842;-2.230;2022-10-17T07:28:33;14.80;99.90
37222;DHT22;23119;51.842;-2.230;2022-10-17T07:31:10;14.90;99.90
37222;DHT22;23119;51.842;-2.230;2022-10-17T07:33:37;14.90;99.90
37222;DHT22;23119;51.842;-2.230;2022-10-17T07:36:03;15.00;99.90
37222;DHT22;23119;51.842;-2.230;2022-10-17T07:38:30;15.10;99.90
37222;DHT22;23119;51.842;-2.230;2022-10-17T07:41:00;15.20;99.90
37222;DHT22;23119;51.842;-2.230;2022-10-17T07:43:26;15.40;99.90
37222;DHT22;23119;51.842;-2.230;2022-10-17T07:46:00;15.60;99.90
37222;DHT22;23119;51.842;-2.230;2022-10-17T07:48:26;15.90;99.90
37222;DHT22;23119;51.842;-2.230;2022-10-17T07:50:52;16.10;99.90
37222;DHT22;23119;51.842;-2.230;2022-10-17T07:53:20;16.30;99.90
37222;DHT22;23119;51.842;-2.230;2022-10-17T07:55:48;16.50;99.90
37222;DHT22;23119;51.842;-2.230;2022-10-17T07:58:18;17.00;99.90
37222;DHT22;23119;51.842;-2.230;2022-10-17T08:00:44;17.90;99.90
37222;DHT22;23119;51.842;-2.230;2022-10-17T08:03:16;18.80;99.90
37222;DHT22;23119;51.842;-2.230;2022-10-17T08:05:45;19.70;99.90
37222;DHT22;23119;51.842;-2.230;2022-10-17T08:08:16;20.20;99.90
37222;DHT22;23119;51.842;-2.230;2022-10-17T08:10:45;20.40;99.90
37222;DHT22;23119;51.842;-2.230;2022-10-17T08:13:15;20.70;99.90
37222;DHT22;23119;51.842;-2.230;2022-10-17T08:15:41;21.10;99.90
37222;DHT22;23119;51.842;-2.230;2022-10-17T08:18:10;21.90;99.90
37222;DHT22;23119;51.842;-2.230;2022-10-17T08:20:39;22.60;99.90
37222;DHT22;23119;51.842;-2.230;2022-10-17T08:23:07;22.40;99.30
37222;DHT22;23119;51.842;-2.230;2022-10-17T08:25:33;22.00;99.90
37222;DHT22;23119;51.842;-2.230;2022-10-17T08:28:02;21.50;99.90
37222;DHT22;23119;51.842;-2.230;2022-10-17T08:30:33;21.30;99.90
37222;DHT22;23119;51.842;-2.230;2022-10-17T08:33:22;21.70;99.90
37222;DHT22;23119;51.842;-2.230;2022-10-17T08:35:50;22.90;99.20
37222;DHT22;23119;51.842;-2.230;2022-10-17T08:38:16;23.90;98.90
37222;DHT22;23119;51.842;-2.230;2022-10-17T08:40:42;24.70;98.00
37222;DHT22;23119;51.842;-2.230;2022-10-17T08:46:36;27.30;93.80
37222;DHT22;23119;51.842;-2.230;2022-10-17T08:49:13;28.40;92.20
37222;DHT22;23119;51.842;-2.230;2022-10-17T08:51:50;29.00;92.00
37222;DHT22;23119;51.842;-2.230;2022-10-17T08:54:39;29.60;89.00
37222;DHT22;23119;51.842;-2.230;2022-10-17T08:57:14;30.00;86.90
37222;DHT22;23119;51.842;-2.230;2022-10-17T08:59:51;30.80;86.40
37222;DHT22;23119;51.842;-2.230;2022-10-17T09:02:37;31.40;85.20
37222;DHT22;23119;51.842;-2.230;2022-10-17T09:05:29;31.90;84.90
37222;DHT22;23119;51.842;-2.230;2022-10-17T09:18:41;32.40;78.50
37222;DHT22;23119;51.842;-2.230;2022-10-17T09:24:44;32.00;79.10
37222;DHT22;23119;51.842;-2.230;2022-10-17T09:27:10;32.00;79.50
37222;DHT22;23119;51.842;-2.230;2022-10-17T09:29:39;32.00;79.70
37222;DHT22;23119;51.842;-2.230;2022-10-17T09:32:17;32.20;80.50
37222;DHT22;23119;51.842;-2.230;2022-10-17T09:34:49;32.20;76.80
37222;DHT22;23119;51.842;-2.230;2022-10-17T09:37:29;32.00;77.40
37222;DHT22;23119;51.842;-2.230;2022-10-17T09:39:55;31.40;79.80
37222;DHT22;23119;51.842;-2.230;2022-10-17T09:42:24;31.30;80.50
37222;DHT22;23119;51.842;-2.230;2022-10-17T09:45:19;31.00;79.70
37222;DHT22;23119;51.842;-2.230;2022-10-17T09:47:52;30.10;78.40
37222;DHT22;23119;51.842;-2.230;2022-10-17T09:52:58;27.80;82.90
37222;DHT22;23119;51.842;-2.230;2022-10-17T09:55:44;26.90;84.90
37222;DHT22;23119;51.842;-2.230;2022-10-17T09:58:14;25.90;85.80
37222;DHT22;23119;51.842;-2.230;2022-10-17T10:00:46;25.50;87.70
37222;DHT22;23119;51.842;-2.230;2022-10-17T10:03:24;25.20;88.00
37222;DHT22;23119;51.842;-2.230;2022-10-17T10:08:48;24.30;90.10
37222;DHT22;23119;51.842;-2.230;2022-10-17T10:11:14;24.30;90.10
37222;DHT22;23119;51.842;-2.230;2022-10-17T10:13:42;23.90;90.70
37222;DHT22;23119;51.842;-2.230;2022-10-17T10:16:44;23.80;91.10
37222;DHT22;23119;51.842;-2.230;2022-10-17T10:22:01;23.40;91.70
37222;DHT22;23119;51.842;-2.230;2022-10-17T10:24:30;23.30;92.20
37222;DHT22;23119;51.842;-2.230;2022-10-17T10:26:58;23.10;92.20
37222;DHT22;23119;51.842;-2.230;2022-10-17T10:29:36;23.10;92.40
37222;DHT22;23119;51.842;-2.230;2022-10-17T10:35:05;22.80;92.50
37222;DHT22;23119;51.842;-2.230;2022-10-17T10:37:42;22.50;92.60
37222;DHT22;23119;51.842;-2.230;2022-10-17T10:42:50;22.00;93.10
37222;DHT22;23119;51.842;-2.230;2022-10-17T10:45:27;21.80;93.50
37222;DHT22;23119;51.842;-2.230;2022-10-17T10:55:53;20.80;94.70
37222;DHT22;23119;51.842;-2.230;2022-10-17T10:58:25;20.70;95.20
37222;DHT22;23119;51.842;-2.230;2022-10-17T11:01:04;20.50;95.30
37222;DHT22;23119;51.842;-2.230;2022-10-17T11:03:38;20.30;95.80
37222;DHT22;23119;51.842;-2.230;2022-10-17T11:06:19;20.30;96.00
37222;DHT22;23119;51.842;-2.230;2022-10-17T11:09:14;20.20;96.70
37222;DHT22;23119;51.842;-2.230;2022-10-17T11:11:41;20.10;96.70
37222;DHT22;23119;51.842;-2.230;2022-10-17T11:17:37;19.90;97.20
37222;DHT22;23119;51.842;-2.230;2022-10-17T11:20:40;19.60;97.50
37222;DHT22;23119;51.842;-2.230;2022-10-17T11:23:15;19.40;97.80
37222;DHT22;23119;51.842;-2.230;2022-10-17T11:25:54;19.30;97.80
37222;DHT22;23119;51.842;-2.230;2022-10-17T11:28:30;19.20;98.40
37222;DHT22;23119;51.842;-2.230;2022-10-17T11:31:21;19.20;98.30
37222;DHT22;23119;51.842;-2.230;2022-10-17T11:34:06;19.20;98.50
37222;DHT22;23119;51.842;-2.230;2022-10-17T11:36:37;19.30;98.60
37222;DHT22;23119;51.842;-2.230;2022-10-17T11:39:13;19.40;98.60
37222;DHT22;23119;51.842;-2.230;2022-10-17T11:44:52;19.50;98.40
37222;DHT22;23119;51.842;-2.230;2022-10-17T11:47:38;19.40;98.30
37222;DHT22;23119;51.842;-2.230;2022-10-17T11:50:30;19.20;98.30
37222;DHT22;23119;51.842;-2.230;2022-10-17T11:55:36;19.00;98.90
37222;DHT22;23119;51.842;-2.230;2022-10-17T12:03:43;19.00;99.00
37222;DHT22;23119;51.842;-2.230;2022-10-17T12:12:07;19.00;98.90
37222;DHT22;23119;51.842;-2.230;2022-10-17T12:14:44;19.00;99.00
37222;DHT22;23119;51.842;-2.230;2022-10-17T12:23:01;19.00;99.10
37222;DHT22;23119;51.842;-2.230;2022-10-17T12:25:32;19.00;99.10
37222;DHT22;23119;51.842;-2.230;2022-10-17T12:28:11;19.10;99.10
37222;DHT22;23119;51.842;-2.230;2022-10-17T12:31:05;19.20;99.20
37222;DHT22;23119;51.842;-2.230;2022-10-17T12:33:47;19.30;98.90
37222;DHT22;23119;51.842;-2.230;2022-10-17T12:38:49;19.40;98.80
37222;DHT22;23119;51.842;-2.230;2022-10-17T12:47:36;19.40;98.60
37222;DHT22;23119;51.842;-2.230;2022-10-17T12:50:03;19.30;98.30
37222;DHT22;23119;51.842;-2.230;2022-10-17T12:53:04;19.30;98.40
37222;DHT22;23119;51.842;-2.230;2022-10-17T12:55:34;19.30;98.50
37222;DHT22;23119;51.842;-2.230;2022-10-17T12:58:09;19.20;98.50
37222;DHT22;23119;51.842;-2.230;2022-10-17T13:03:27;19.30;98.30
37222;DHT22;23119;51.842;-2.230;2022-10-17T13:05:56;19.30;97.90
37222;DHT22;23119;51.842;-2.230;2022-10-17T13:08:36;19.30;98.00
37222;DHT22;23119;51.842;-2.230;2022-10-17T13:11:04;19.40;97.90
37222;DHT22;23119;51.842;-2.230;2022-10-17T13:19:02;19.40;97.70
37222;DHT22;23119;51.842;-2.230;2022-10-17T13:21:28;19.40;97.90
37222;DHT22;23119;51.842;-2.230;2022-10-17T13:23:56;19.50;97.90
37222;DHT22;23119;51.842;-2.230;2022-10-17T13:26:28;19.40;97.80
37222;DHT22;23119;51.842;-2.230;2022-10-17T13:29:05;19.30;97.80
37222;DHT22;23119;51.842;-2.230;2022-10-17T13:31:38;19.30;97.70
37222;DHT22;23119;51.842;-2.230;2022-10-17T13:34:14;19.30;97.90
37222;DHT22;23119;51.842;-2.230;2022-10-17T13:36:49;19.40;97.90
37222;DHT22;23119;51.842;-2.230;2022-10-17T13:39:24;19.50;97.30
37222;DHT22;23119;51.842;-2.230;2022-10-17T13:41:54;19.40;97.40
37222;DHT22;23119;51.842;-2.230;2022-10-17T13:44:23;19.40;97.30
37222;DHT22;23119;51.842;-2.230;2022-10-17T13:46:55;19.40;97.20
37222;DHT22;23119;51.842;-2.230;2022-10-17T13:49:52;19.50;96.90
37222;DHT22;23119;51.842;-2.230;2022-10-17T13:52:29;19.50;96.90
37222;DHT22;23119;51.842;-2.230;2022-10-17T13:55:11;19.50;97.10
37222;DHT22;23119;51.842;-2.230;2022-10-17T13:57:44;19.40;96.60
37222;DHT22;23119;51.842;-2.230;2022-10-17T14:00:21;19.40;97.00
37222;DHT22;23119;51.842;-2.230;2022-10-17T14:02:48;19.30;96.60
37222;DHT22;23119;51.842;-2.230;2022-10-17T14:05:20;19.30;96.90
37222;DHT22;23119;51.842;-2.230;2022-10-17T14:07:56;19.30;97.00
37222;DHT22;23119;51.842;-2.230;2022-10-17T14:10:36;19.30;97.10
37222;DHT22;23119;51.842;-2.230;2022-10-17T14:13:06;19.30;97.20
37222;DHT22;23119;51.842;-2.230;2022-10-17T14:15:50;19.30;97.40
37222;DHT22;23119;51.842;-2.230;2022-10-17T14:18:36;19.20;97.50
37222;DHT22;23119;51.842;-2.230;2022-10-17T14:21:07;19.20;97.70
37222;DHT22;23119;51.842;-2.230;2022-10-17T14:23:43;19.10;97.90
37222;DHT22;23119;51.842;-2.230;2022-10-17T14:26:16;19.00;97.90
37222;DHT22;23119;51.842;-2.230;2022-10-17T14:29:03;18.90;98.10
37222;DHT22;23119;51.842;-2.230;2022-10-17T14:31:34;19.00;98.30
37222;DHT22;23119;51.842;-2.230;2022-10-17T14:34:25;19.00;98.30
37222;DHT22;23119;51.842;-2.230;2022-10-17T14:36:57;19.00;98.30
37222;DHT22;23119;51.842;-2.230;2022-10-17T14:39:26;18.90;98.30
37222;DHT22;23119;51.842;-2.230;2022-10-17T14:41:53;19.00;98.40
37222;DHT22;23119;51.842;-2.230;2022-10-17T14:44:27;19.00;98.40
37222;DHT22;23119;51.842;-2.230;2022-10-17T14:46:58;19.00;98.40
37222;DHT22;23119;51.842;-2.230;2022-10-17T14:49:38;18.90;98.50
37222;DHT22;23119;51.842;-2.230;2022-10-17T14:54:48;18.80;98.70
37222;DHT22;23119;51.842;-2.230;2022-10-17T14:57:23;18.80;98.70
37222;DHT22;23119;51.842;-2.230;2022-10-17T14:59:54;18.80;98.80
37222;DHT22;23119;51.842;-2.230;2022-10-17T15:02:25;18.70;99.00
37222;DHT22;23119;51.842;-2.230;2022-10-17T15:04:54;18.70;99.10
37222;DHT22;23119;51.842;-2.230;2022-10-17T15:07:26;18.70;99.20
37222;DHT22;23119;51.842;-2.230;2022-10-17T15:09:57;18.70;99.30
37222;DHT22;23119;51.842;-2.230;2022-10-17T15:12:24;18.60;99.30
37222;DHT22;23119;51.842;-2.230;2022-10-17T15:14:50;18.70;99.40
37222;DHT22;23119;51.842;-2.230;2022-10-17T15:17:26;18.60;99.50
37222;DHT22;23119;51.842;-2.230;2022-10-17T15:19:55;18.50;99.60
37222;DHT22;23119;51.842;-2.230;2022-10-17T15:22:24;18.60;99.70
37222;DHT22;23119;51.842;-2.230;2022-10-17T15:24:52;18.50;99.80
37222;DHT22;23119;51.842;-2.230;2022-10-17T15:27:23;18.50;99.90
37222;DHT22;23119;51.842;-2.230;2022-10-17T15:29:52;18.50;99.90
37222;DHT22;23119;51.842;-2.230;2022-10-17T15:32:23;18.50;99.90
37222;DHT22;23119;51.842;-2.230;2022-10-17T15:34:52;18.50;99.90
37222;DHT22;23119;51.842;-2.230;2022-10-17T15:37:20;18.50;99.90
37222;DHT22;23119;51.842;-2.230;2022-10-17T15:39:56;18.50;99.90
37222;DHT22;23119;51.842;-2.230;2022-10-17T15:42:25;18.50;99.90
37222;DHT22;23119;51.842;-2.230;2022-10-17T15:45:12;18.50;99.90
37222;DHT22;23119;51.842;-2.230;2022-10-17T15:47:41;18.50;99.80
37222;DHT22;23119;51.842;-2.230;2022-10-17T15:50:13;18.50;99.90
37222;DHT22;23119;51.842;-2.230;2022-10-17T15:52:39;18.50;99.90
37222;DHT22;23119;51.842;-2.230;2022-10-17T15:55:13;18.50;99.90
37222;DHT22;23119;51.842;-2.230;2022-10-17T15:57:44;18.50;99.80
37222;DHT22;23119;51.842;-2.230;2022-10-17T16:00:19;18.50;99.80
37222;DHT22;23119;51.842;-2.230;2022-10-17T16:02:53;18.50;99.90
37222;DHT22;23119;51.842;-2.230;2022-10-17T16:05:26;18.40;99.90
37222;DHT22;23119;51.842;-2.230;2022-10-17T16:07:54;18.40;99.90
37222;DHT22;23119;51.842;-2.230;2022-10-17T16:10:23;18.30;99.90
37222;DHT22;23119;51.842;-2.230;2022-10-17T16:12:53;18.30;99.90
37222;DHT22;23119;51.842;-2.230;2022-10-17T16:15:26;18.20;99.90
37222;DHT22;23119;51.842;-2.230;2022-10-17T16:17:54;18.20;99.90
37222;DHT22;23119;51.842;-2.230;2022-10-17T16:20:23;18.10;99.90
37222;DHT22;23119;51.842;-2.230;2022-10-17T16:22:52;18.10;99.90
37222;DHT22;23119;51.842;-2.230;2022-10-17T16:25:26;18.00;99.90
37222;DHT22;23119;51.842;-2.230;2022-10-17T16:27:54;17.90;99.90
37222;DHT22;23119;51.842;-2.230;2022-10-17T16:30:21;17.80;99.90
37222;DHT22;23119;51.842;-2.230;2022-10-17T16:32:50;17.80;99.90
37222;DHT22;23119;51.842;-2.230;2022-10-17T16:35:20;17.70;99.90
37222;DHT22;23119;51.842;-2.230;2022-10-17T16:37:48;17.60;99.90
37222;DHT22;23119;51.842;-2.230;2022-10-17T16:40:15;17.60;99.90
37222;DHT22;23119;51.842;-2.230;2022-10-17T16:42:52;17.50;99.90
37222;DHT22;23119;51.842;-2.230;2022-10-17T16:45:20;17.40;99.90
37222;DHT22;23119;51.842;-2.230;2022-10-17T16:47:49;17.30;99.90
37222;DHT22;23119;51.842;-2.230;2022-10-17T16:50:20;17.20;99.90
37222;DHT22;23119;51.842;-2.230;2022-10-17T16:52:49;17.10;99.90
37222;DHT22;23119;51.842;-2.230;2022-10-17T16:55:17;16.90;99.90
37222;DHT22;23119;51.842;-2.230;2022-10-17T16:57:44;16.80;99.90
37222;DHT22;23119;51.842;-2.230;2022-10-17T17:00:15;16.70;99.90
37222;DHT22;23119;51.842;-2.230;2022-10-17T17:02:49;16.70;99.90
37222;DHT22;23119;51.842;-2.230;2022-10-17T17:05:15;16.50;99.90
37222;DHT22;23119;51.842;-2.230;2022-10-17T17:07:41;16.50;99.90
37222;DHT22;23119;51.842;-2.230;2022-10-17T17:10:09;16.30;99.90
37222;DHT22;23119;51.842;-2.230;2022-10-17T17:12:46;16.20;99.90
37222;DHT22;23119;51.842;-2.230;2022-10-17T17:15:12;16.00;99.90
37222;DHT22;23119;51.842;-2.230;2022-10-17T17:17:42;15.90;99.90
37222;DHT22;23119;51.842;-2.230;2022-10-17T17:20:11;15.70;99.90
37222;DHT22;23119;51.842;-2.230;2022-10-17T17:22:36;15.70;99.90
37222;DHT22;23119;51.842;-2.230;2022-10-17T17:25:07;15.50;99.90
37222;DHT22;23119;51.842;-2.230;2022-10-17T17:27:36;15.40;99.90
37222;DHT22;23119;51.842;-2.230;2022-10-17T17:30:02;15.30;99.90
37222;DHT22;23119;51.842;-2.230;2022-10-17T17:32:27;15.20;99.90
37222;DHT22;23119;51.842;-2.230;2022-10-17T17:34:53;15.10;99.90
37222;DHT22;23119;51.842;-2.230;2022-10-17T17:37:19;15.00;99.90
37222;DHT22;23119;51.842;-2.230;2022-10-17T17:39:50;14.90;99.90
37222;DHT22;23119;51.842;-2.230;2022-10-17T17:42:18;14.80;99.90
37222;DHT22;23119;51.842;-2.230;2022-10-17T17:44:44;14.70;99.90